Time;durP1;ratioP1;P1;durP2;ratioP2;P2;SDS_P1;SDS_P2;PMS_P1;PMS_P2;Temp;Humidity;BMP_temperature;BMP_pressure;BME280_temperature;BME280_humidity;BME280_pressure;Samples;Min_cycle;Max_cycle;Signal;HPM_P1;HPM_P2
2021/11/11 00:01:10;;;;;;;;;;;20.80;39.40;;;;;;478787;249;2190;-46
2021/11/11 00:03:12;;;;;;;;;;;20.90;39.40;;;;;;478763;249;1219;-47
2021/11/11 00:05:13;;;;;;;;;;;20.80;39.40;;;;;;478619;249;1091;-46
2021/11/11 00:07:14;;;;;;;;;;;20.80;39.40;;;;;;478659;249;1715;-47
2021/11/11 00:09:16;;;;;;;;;;;20.80;39.40;;;;;;478711;249;1240;-46
2021/11/11 00:11:17;;;;;;;;;;;20.80;39.40;;;;;;478789;249;1023;-47
2021/11/11 00:13:19;;;;;;;;;;;20.80;39.40;;;;;;478629;249;1211;-46
2021/11/11 00:15:20;;;;;;;;;;;20.80;39.40;;;;;;478554;249;1203;-47
2021/11/11 00:17:22;;;;;;;;;;;20.80;39.40;;;;;;478511;249;1329;-47
2021/11/11 00:19:23;;;;;;;;;;;20.90;39.40;;;;;;478604;249;1031;-47
2021/11/11 00:21:24;;;;;;;;;;;20.80;39.30;;;;;;478969;249;2194;-47
2021/11/11 00:23:26;;;;;;;;;;;20.80;39.40;;;;;;478611;249;1066;-47
2021/11/11 00:25:29;;;;;;;;;;;20.90;39.40;;;;;;478563;249;1082;-46
2021/11/11 00:27:29;;;;;;;;;;;20.80;39.40;;;;;;478895;249;2134;-47
2021/11/11 00:29:30;;;;;;;;;;;20.90;39.50;;;;;;478567;249;1217;-47
2021/11/11 00:31:31;;;;;;;;;;;20.80;39.40;;;;;;478824;249;1050;-47
2021/11/11 00:33:33;;;;;;;;;;;20.80;39.30;;;;;;478559;249;1109;-47
2021/11/11 00:35:34;;;;;;;;;;;20.90;39.40;;;;;;478561;249;1078;-47
2021/11/11 00:37:35;;;;;;;;;;;20.80;39.40;;;;;;478916;249;1156;-47
2021/11/11 00:39:37;;;;;;;;;;;20.90;39.40;;;;;;478619;249;1372;-47
2021/11/11 00:41:38;;;;;;;;;;;20.90;39.40;;;;;;478782;249;2135;-47
2021/11/11 00:43:39;;;;;;;;;;;20.90;39.30;;;;;;478646;249;1302;-47
2021/11/11 00:45:41;;;;;;;;;;;20.80;39.40;;;;;;478588;249;1123;-47
2021/11/11 00:47:42;;;;;;;;;;;20.80;39.30;;;;;;478776;249;1225;-47
2021/11/11 00:49:43;;;;;;;;;;;20.90;39.30;;;;;;478618;249;1060;-47
2021/11/11 00:51:45;;;;;;;;;;;20.90;39.30;;;;;;478648;249;1150;-47
2021/11/11 00:53:46;;;;;;;;;;;20.90;39.30;;;;;;478758;249;1051;-47
2021/11/11 00:55:47;;;;;;;;;;;20.80;39.30;;;;;;478566;249;1364;-47
2021/11/11 00:57:49;;;;;;;;;;;20.90;39.30;;;;;;478513;249;1176;-46
2021/11/11 00:59:50;;;;;;;;;;;20.90;39.30;;;;;;478624;249;1114;-47
2021/11/11 01:01:51;;;;;;;;;;;20.90;39.30;;;;;;478735;249;2203;-47
2021/11/11 01:03:53;;;;;;;;;;;20.80;39.30;;;;;;479076;249;1086;-47
2021/11/11 01:05:54;;;;;;;;;;;20.90;39.40;;;;;;478784;249;1232;-47
2021/11/11 01:07:57;;;;;;;;;;;20.80;39.40;;;;;;478588;249;1109;-47
2021/11/11 01:09:58;;;;;;;;;;;20.90;39.40;;;;;;478633;249;1024;-47
2021/11/11 01:12:00;;;;;;;;;;;20.80;39.30;;;;;;478678;249;1294;-46
2021/11/11 01:14:02;;;;;;;;;;;20.80;39.40;;;;;;478772;249;1254;-47
2021/11/11 01:16:02;;;;;;;;;;;20.80;39.40;;;;;;478768;249;2389;-47
2021/11/11 01:18:04;;;;;;;;;;;20.80;39.30;;;;;;478582;249;1091;-47
2021/11/11 01:20:05;;;;;;;;;;;20.80;39.30;;;;;;478829;249;1060;-47
2021/11/11 01:22:07;;;;;;;;;;;20.80;39.40;;;;;;478543;249;2192;-47
2021/11/11 01:24:08;;;;;;;;;;;20.90;39.40;;;;;;478891;249;1063;-47
2021/11/11 01:26:09;;;;;;;;;;;20.80;39.30;;;;;;479030;249;1079;-47
2021/11/11 01:28:11;;;;;;;;;;;20.80;39.30;;;;;;478899;249;1068;-47
2021/11/11 01:30:12;;;;;;;;;;;20.90;39.30;;;;;;478568;249;1166;-47
2021/11/11 01:32:13;;;;;;;;;;;20.80;39.20;;;;;;478610;249;962;-47
2021/11/11 01:34:15;;;;;;;;;;;20.80;39.30;;;;;;478647;249;1004;-47
2021/11/11 01:36:16;;;;;;;;;;;20.90;39.30;;;;;;478827;249;1130;-47
2021/11/11 01:38:17;;;;;;;;;;;20.80;39.30;;;;;;478619;249;1177;-47
2021/11/11 01:40:19;;;;;;;;;;;20.80;39.30;;;;;;478999;249;1017;-47
2021/11/11 01:42:20;;;;;;;;;;;20.90;39.40;;;;;;478516;249;2179;-47
2021/11/11 01:44:21;;;;;;;;;;;20.80;39.30;;;;;;478573;249;1156;-47
2021/11/11 01:46:23;;;;;;;;;;;20.90;39.30;;;;;;478613;249;1512;-47
2021/11/11 01:48:26;;;;;;;;;;;20.80;39.40;;;;;;479010;249;1225;-47
2021/11/11 01:50:25;;;;;;;;;;;20.80;39.30;;;;;;478608;249;2054;-47
2021/11/11 01:52:27;;;;;;;;;;;20.80;39.30;;;;;;478601;249;1142;-47
2021/11/11 01:54:28;;;;;;;;;;;20.80;39.40;;;;;;478779;249;1091;-47
2021/11/11 01:56:29;;;;;;;;;;;20.80;39.30;;;;;;478582;249;1333;-47
2021/11/11 01:58:31;;;;;;;;;;;20.80;39.30;;;;;;479069;249;1029;-46
2021/11/11 02:00:32;;;;;;;;;;;20.90;39.30;;;;;;478526;249;1479;-47
2021/11/11 02:02:33;;;;;;;;;;;20.90;39.30;;;;;;478656;249;2191;-47
2021/11/11 02:04:35;;;;;;;;;;;20.80;39.40;;;;;;479041;249;1095;-47
2021/11/11 02:06:36;;;;;;;;;;;20.90;39.40;;;;;;478551;249;1592;-47
2021/11/11 02:08:37;;;;;;;;;;;20.80;39.30;;;;;;478650;249;1206;-47
2021/11/11 02:10:39;;;;;;;;;;;20.80;39.30;;;;;;478987;249;1175;-47
2021/11/11 02:12:40;;;;;;;;;;;20.80;39.30;;;;;;478594;249;1120;-47
2021/11/11 02:14:41;;;;;;;;;;;20.80;39.30;;;;;;478755;249;1208;-47
2021/11/11 02:16:43;;;;;;;;;;;20.80;39.30;;;;;;478852;249;1072;-47
2021/11/11 02:18:44;;;;;;;;;;;20.80;39.30;;;;;;479002;249;985;-47
2021/11/11 02:20:45;;;;;;;;;;;20.90;39.30;;;;;;478584;249;1245;-46
2021/11/11 02:22:47;;;;;;;;;;;20.80;39.30;;;;;;478817;249;2186;-47
2021/11/11 02:24:48;;;;;;;;;;;20.80;39.30;;;;;;478613;249;978;-47
2021/11/11 02:26:49;;;;;;;;;;;20.80;39.30;;;;;;478533;249;1053;-47
2021/11/11 02:28:51;;;;;;;;;;;20.80;39.30;;;;;;478849;249;1090;-47
2021/11/11 02:30:52;;;;;;;;;;;20.90;39.30;;;;;;478582;249;1256;-47
2021/11/11 02:32:53;;;;;;;;;;;20.80;39.30;;;;;;478948;249;1075;-47
2021/11/11 02:34:55;;;;;;;;;;;20.90;39.40;;;;;;478955;249;1056;-47
2021/11/11 02:36:56;;;;;;;;;;;20.80;39.20;;;;;;478801;249;1070;-47
2021/11/11 02:38:58;;;;;;;;;;;20.80;39.30;;;;;;478572;249;1063;-47
2021/11/11 02:41:00;;;;;;;;;;;20.80;39.30;;;;;;478881;249;1062;-47
2021/11/11 02:43:00;;;;;;;;;;;20.80;39.30;;;;;;478522;249;2166;-47
2021/11/11 02:45:02;;;;;;;;;;;20.80;39.30;;;;;;478539;249;1278;-47
2021/11/11 02:47:03;;;;;;;;;;;20.80;39.30;;;;;;478588;245;2261;-47
2021/11/11 02:49:04;;;;;;;;;;;20.90;39.30;;;;;;478894;249;1055;-47
2021/11/11 02:51:06;;;;;;;;;;;20.80;39.30;;;;;;478890;249;1054;-47
2021/11/11 02:53:08;;;;;;;;;;;20.80;39.20;;;;;;478582;249;1245;-47
2021/11/11 02:55:08;;;;;;;;;;;20.80;39.40;;;;;;479006;249;1989;-47
2021/11/11 02:57:10;;;;;;;;;;;20.80;39.40;;;;;;478801;249;1147;-46
2021/11/11 02:59:11;;;;;;;;;;;20.80;39.30;;;;;;478605;249;1060;-47
2021/11/11 03:01:13;;;;;;;;;;;20.80;39.30;;;;;;478653;249;1153;-47
2021/11/11 03:03:14;;;;;;;;;;;20.90;39.30;;;;;;478867;249;2136;-47
2021/11/11 03:05:15;;;;;;;;;;;20.80;39.30;;;;;;478554;249;1057;-47
2021/11/11 03:07:17;;;;;;;;;;;20.80;39.30;;;;;;478733;249;1387;-47
2021/11/11 03:09:18;;;;;;;;;;;20.80;39.30;;;;;;478850;249;1176;-47
2021/11/11 03:11:22;;;;;;;;;;;20.80;39.40;;;;;;478918;249;1169;-47
2021/11/11 03:13:21;;;;;;;;;;;20.80;39.30;;;;;;478857;249;2324;-47
2021/11/11 03:15:22;;;;;;;;;;;20.80;39.30;;;;;;478897;249;1304;-47
2021/11/11 03:17:24;;;;;;;;;;;20.80;39.20;;;;;;478953;249;1130;-47
2021/11/11 03:19:25;;;;;;;;;;;20.90;39.30;;;;;;479048;249;1050;-47
2021/11/11 03:21:26;;;;;;;;;;;20.80;39.20;;;;;;478775;249;1031;-47
2021/11/11 03:23:27;;;;;;;;;;;20.80;39.30;;;;;;478571;249;2190;-47
2021/11/11 03:25:29;;;;;;;;;;;20.80;39.30;;;;;;478648;249;1028;-47
2021/11/11 03:27:31;;;;;;;;;;;20.80;39.30;;;;;;478587;249;1106;-47
2021/11/11 03:29:32;;;;;;;;;;;20.80;39.40;;;;;;479063;249;1349;-47
2021/11/11 03:31:33;;;;;;;;;;;20.80;39.40;;;;;;478589;249;1274;-47
2021/11/11 03:33:34;;;;;;;;;;;20.80;39.40;;;;;;478867;249;1403;-47
2021/11/11 03:35:36;;;;;;;;;;;20.80;39.30;;;;;;478593;249;1119;-47
2021/11/11 03:37:37;;;;;;;;;;;20.80;39.30;;;;;;478877;249;1205;-47
2021/11/11 03:39:38;;;;;;;;;;;20.80;39.30;;;;;;478775;249;1098;-47
2021/11/11 03:41:40;;;;;;;;;;;20.80;39.30;;;;;;478961;249;2210;-47
2021/11/11 03:43:41;;;;;;;;;;;20.80;39.30;;;;;;479071;249;1096;-47
2021/11/11 03:45:42;;;;;;;;;;;20.80;39.30;;;;;;478882;249;1171;-47
2021/11/11 03:47:44;;;;;;;;;;;20.80;39.40;;;;;;478679;249;1324;-46
2021/11/11 03:49:47;;;;;;;;;;;20.80;39.40;;;;;;478676;249;1221;-47
2021/11/11 03:51:47;;;;;;;;;;;20.80;39.30;;;;;;478757;249;2024;-47
2021/11/11 03:53:49;;;;;;;;;;;20.80;39.30;;;;;;478639;249;1213;-47
2021/11/11 03:55:49;;;;;;;;;;;20.80;39.40;;;;;;478572;249;2093;-47
2021/11/11 03:57:51;;;;;;;;;;;20.80;39.30;;;;;;478556;249;1232;-47
2021/11/11 03:59:52;;;;;;;;;;;20.80;39.30;;;;;;478674;249;1125;-47
2021/11/11 04:01:54;;;;;;;;;;;20.80;39.30;;;;;;478497;249;2167;-47
2021/11/11 04:03:55;;;;;;;;;;;20.80;39.30;;;;;;479048;249;1024;-47
2021/11/11 04:05:56;;;;;;;;;;;20.80;39.30;;;;;;478534;249;1236;-47
2021/11/11 04:07:58;;;;;;;;;;;20.80;39.30;;;;;;478502;249;1195;-47
2021/11/11 04:09:59;;;;;;;;;;;20.80;39.30;;;;;;478494;249;1102;-47
2021/11/11 04:12:01;;;;;;;;;;;20.80;39.40;;;;;;478403;249;1323;-47
2021/11/11 04:14:02;;;;;;;;;;;20.80;39.40;;;;;;478720;249;2195;-47
2021/11/11 04:16:03;;;;;;;;;;;20.80;39.30;;;;;;478745;249;1249;-47
2021/11/11 04:18:04;;;;;;;;;;;20.80;39.40;;;;;;478633;249;1191;-47
2021/11/11 04:20:06;;;;;;;;;;;20.80;39.30;;;;;;478570;249;1112;-47
2021/11/11 04:22:07;;;;;;;;;;;20.80;39.40;;;;;;478646;249;2142;-47
2021/11/11 04:24:08;;;;;;;;;;;20.80;39.40;;;;;;478751;249;1102;-47
2021/11/11 04:26:14;;;;;;;;;;;20.80;39.40;;;;;;478765;246;1130;-47
2021/11/11 04:28:16;;;;;;;;;;;20.80;39.30;;;;;;478264;249;2229;-47
2021/11/11 04:30:19;;;;;;;;;;;20.80;39.40;;;;;;478229;249;2035;-47
2021/11/11 04:32:16;;;;;;;;;;;20.80;39.40;;;;;;478091;249;2332;-46
2021/11/11 04:34:17;;;;;;;;;;;20.80;39.40;;;;;;478533;249;2205;-47
2021/11/11 04:36:32;;;;;;;;;;;20.80;39.40;;;;;;478703;249;2021;-46
2021/11/11 04:38:31;;;;;;;;;;;20.80;39.40;;;;;;477843;249;2318;-47
2021/11/11 04:41:05;;;;;;;;;;;20.80;39.30;;;;;;477945;249;2138;-47
2021/11/11 04:43:11;;;;;;;;;;;20.80;39.40;;;;;;477952;249;2191;-47
2021/11/11 04:45:39;;;;;;;;;;;20.70;39.40;;;;;;478074;249;2192;-46
2021/11/11 04:47:30;;;;;;;;;;;20.80;39.40;;;;;;477113;249;1757;-47
2021/11/11 04:49:54;;;;;;;;;;;20.80;39.40;;;;;;478645;249;2283;-46
2021/11/11 04:51:54;;;;;;;;;;;20.80;39.40;;;;;;477698;249;2157;-46
2021/11/11 05:03:16;;;;;;;;;;;20.70;39.40;;;;;;478594;249;2127;-47
2021/11/11 05:05:16;;;;;;;;;;;20.80;39.50;;;;;;478625;249;2645;-47
2021/11/11 05:07:18;;;;;;;;;;;20.70;39.40;;;;;;478529;249;1232;-47
2021/11/11 05:09:19;;;;;;;;;;;20.70;39.40;;;;;;478536;249;1086;-47
2021/11/11 05:11:21;;;;;;;;;;;20.70;39.40;;;;;;478497;249;1375;-47
2021/11/11 05:13:22;;;;;;;;;;;20.70;39.50;;;;;;478810;249;2213;-47
2021/11/11 05:15:23;;;;;;;;;;;20.70;39.40;;;;;;478657;249;979;-47
2021/11/11 05:17:25;;;;;;;;;;;20.80;39.40;;;;;;478473;249;1232;-46
2021/11/11 05:19:26;;;;;;;;;;;20.80;39.40;;;;;;478540;249;2441;-47
2021/11/11 05:21:27;;;;;;;;;;;20.80;39.40;;;;;;478416;249;1657;-47
2021/11/11 05:23:28;;;;;;;;;;;20.80;39.30;;;;;;478693;249;2194;-47
2021/11/11 05:25:30;;;;;;;;;;;20.80;39.30;;;;;;478482;249;1116;-47
2021/11/11 05:27:31;;;;;;;;;;;20.80;39.40;;;;;;478662;249;1192;-47
2021/11/11 05:29:32;;;;;;;;;;;20.70;39.40;;;;;;478634;249;1106;-47
2021/11/11 05:31:34;;;;;;;;;;;20.70;39.40;;;;;;478490;245;1432;-47
2021/11/11 05:33:35;;;;;;;;;;;20.80;39.40;;;;;;478902;249;1238;-46
2021/11/11 05:35:36;;;;;;;;;;;20.80;39.40;;;;;;478613;249;1096;-47
2021/11/11 05:37:38;;;;;;;;;;;20.80;39.40;;;;;;478565;249;1127;-47
2021/11/11 05:39:39;;;;;;;;;;;20.80;39.30;;;;;;478415;249;1105;-47
2021/11/11 05:41:40;;;;;;;;;;;20.80;39.40;;;;;;478526;249;1169;-47
2021/11/11 05:43:42;;;;;;;;;;;20.80;39.40;;;;;;479048;242;2116;-47
2021/11/11 05:45:43;;;;;;;;;;;20.80;39.30;;;;;;478315;249;1004;-47
2021/11/11 05:47:44;;;;;;;;;;;20.80;39.40;;;;;;478423;249;1137;-47
2021/11/11 05:49:46;;;;;;;;;;;20.70;39.40;;;;;;478435;249;1056;-47
2021/11/11 05:51:47;;;;;;;;;;;20.80;39.40;;;;;;478461;249;1363;-47
2021/11/11 05:53:48;;;;;;;;;;;20.80;39.40;;;;;;478607;249;1070;-47
2021/11/11 05:55:51;;;;;;;;;;;20.70;39.40;;;;;;478364;249;1200;-47
2021/11/11 05:57:51;;;;;;;;;;;20.80;39.40;;;;;;478416;249;1967;-47
2021/11/11 05:59:53;;;;;;;;;;;20.80;39.40;;;;;;478343;249;1045;-47
2021/11/11 06:01:54;;;;;;;;;;;20.80;39.40;;;;;;478664;249;1281;-47
2021/11/11 06:03:55;;;;;;;;;;;20.80;39.40;;;;;;478390;249;2249;-47
2021/11/11 06:05:57;;;;;;;;;;;20.80;39.40;;;;;;478330;249;1179;-47
2021/11/11 06:07:58;;;;;;;;;;;20.70;39.40;;;;;;478272;249;1153;-47
2021/11/11 06:09:59;;;;;;;;;;;20.80;39.40;;;;;;478220;249;1135;-47
2021/11/11 06:12:00;;;;;;;;;;;20.80;39.30;;;;;;478396;249;1232;-47
2021/11/11 06:14:02;;;;;;;;;;;20.80;39.30;;;;;;478272;249;1091;-47
2021/11/11 06:16:03;;;;;;;;;;;20.80;39.40;;;;;;478239;249;1260;-47
2021/11/11 06:18:04;;;;;;;;;;;20.80;39.40;;;;;;478208;249;1260;-47
2021/11/11 06:20:15;;;;;;;;;;;20.80;39.40;;;;;;478355;249;1062;-47
2021/11/11 06:22:07;;;;;;;;;;;20.80;39.40;;;;;;477647;249;2152;-47
2021/11/11 06:26:12;;;;;;;;;;;20.80;39.40;;;;;;469722;245;3598;-47
2021/11/11 06:28:13;;;;;;;;;;;20.80;39.40;;;;;;479807;247;1094;-47
2021/11/11 06:30:14;;;;;;;;;;;20.70;39.40;;;;;;481698;247;1119;-46
2021/11/11 06:32:16;;;;;;;;;;;20.80;39.40;;;;;;479770;248;1158;-46
2021/11/11 06:34:17;;;;;;;;;;;20.80;39.40;;;;;;481744;247;1046;-46
2021/11/11 06:36:19;;;;;;;;;;;20.80;39.30;;;;;;467407;255;1131;-47
2021/11/11 06:38:20;;;;;;;;;;;20.80;39.40;;;;;;466772;255;1120;-46
2021/11/11 06:40:21;;;;;;;;;;;20.80;39.40;;;;;;480065;248;1177;-46
2021/11/11 06:42:23;;;;;;;;;;;20.70;39.30;;;;;;481572;247;1253;-46
2021/11/11 06:44:24;;;;;;;;;;;20.80;39.40;;;;;;479835;248;2186;-46
2021/11/11 06:46:25;;;;;;;;;;;20.80;39.40;;;;;;481583;247;1699;-46
2021/11/11 06:48:27;;;;;;;;;;;20.80;39.40;;;;;;479815;248;1060;-46
2021/11/11 06:50:28;;;;;;;;;;;20.80;39.40;;;;;;481583;247;1272;-47
2021/11/11 06:52:29;;;;;;;;;;;20.80;39.40;;;;;;479873;248;1067;-46
2021/11/11 06:54:31;;;;;;;;;;;20.70;39.30;;;;;;481562;247;1209;-46
2021/11/11 06:56:32;;;;;;;;;;;20.70;39.40;;;;;;479875;248;1361;-46
2021/11/11 06:58:33;;;;;;;;;;;20.80;39.40;;;;;;481617;247;1175;-46
2021/11/11 07:00:35;;;;;;;;;;;20.80;39.40;;;;;;479768;246;1409;-46
2021/11/11 07:02:36;;;;;;;;;;;20.80;39.40;;;;;;481493;247;1249;-46
2021/11/11 07:04:37;;;;;;;;;;;20.80;39.40;;;;;;479729;248;2190;-46
2021/11/11 07:06:39;;;;;;;;;;;20.80;39.30;;;;;;481292;247;1311;-46
2021/11/11 07:08:40;;;;;;;;;;;20.80;39.40;;;;;;479594;248;1134;-46
2021/11/11 07:10:41;;;;;;;;;;;20.80;39.40;;;;;;481663;247;1260;-47
2021/11/11 07:12:44;;;;;;;;;;;20.70;39.40;;;;;;481380;247;1229;-47
2021/11/11 07:14:45;;;;;;;;;;;20.70;39.40;;;;;;479805;248;3010;-46
2021/11/11 07:16:46;;;;;;;;;;;20.70;39.40;;;;;;481383;247;1308;-47
2021/11/11 07:18:47;;;;;;;;;;;20.80;39.40;;;;;;479680;248;1111;-46
2021/11/11 07:20:49;;;;;;;;;;;20.70;39.30;;;;;;481464;247;1177;-46
2021/11/11 07:22:53;;;;;;;;;;;20.80;39.30;;;;;;481456;247;2298;-46
2021/11/11 07:24:51;;;;;;;;;;;20.80;39.20;;;;;;481383;247;2181;-46
2021/11/11 07:26:52;;;;;;;;;;;20.80;39.30;;;;;;479723;248;1323;-47
2021/11/11 07:28:54;;;;;;;;;;;20.80;39.20;;;;;;481511;247;1084;-46
2021/11/11 07:30:55;;;;;;;;;;;20.80;39.20;;;;;;479517;248;1088;-46
2021/11/11 07:32:57;;;;;;;;;;;20.80;39.20;;;;;;481270;247;1077;-47
2021/11/11 07:34:58;;;;;;;;;;;20.80;39.20;;;;;;479485;248;1128;-46
2021/11/11 07:37:00;;;;;;;;;;;20.80;39.10;;;;;;481501;247;1264;-46
2021/11/11 07:39:02;;;;;;;;;;;20.80;39.10;;;;;;479510;248;1219;-46
2021/11/11 07:41:02;;;;;;;;;;;20.80;39.00;;;;;;481436;246;2105;-47
2021/11/11 07:43:04;;;;;;;;;;;20.80;39.10;;;;;;479433;248;2179;-46
2021/11/11 07:45:05;;;;;;;;;;;20.80;39.00;;;;;;481331;247;1091;-46
2021/11/11 07:47:06;;;;;;;;;;;20.80;39.10;;;;;;479477;248;1723;-46
2021/11/11 07:49:08;;;;;;;;;;;20.80;39.10;;;;;;481367;247;1097;-47
2021/11/11 07:51:09;;;;;;;;;;;20.80;39.10;;;;;;481056;247;1303;-46
2021/11/11 07:53:10;;;;;;;;;;;20.80;39.10;;;;;;467916;255;1076;-46
2021/11/11 07:55:12;;;;;;;;;;;20.80;39.10;;;;;;466477;255;1279;-47
2021/11/11 07:57:13;;;;;;;;;;;20.80;39.10;;;;;;470686;253;1300;-46
2021/11/11 07:59:14;;;;;;;;;;;20.70;39.10;;;;;;470823;251;1118;-46
2021/11/11 08:01:16;;;;;;;;;;;20.80;39.10;;;;;;470762;251;1548;-46
2021/11/11 08:03:17;;;;;;;;;;;20.80;39.10;;;;;;470582;251;2206;-46
2021/11/11 08:05:19;;;;;;;;;;;20.80;39.00;;;;;;470507;251;1253;-47
2021/11/11 08:07:20;;;;;;;;;;;20.80;39.00;;;;;;466977;255;2341;-46
2021/11/11 08:09:21;;;;;;;;;;;20.80;39.00;;;;;;468304;253;1120;-46
2021/11/11 08:11:22;;;;;;;;;;;20.80;39.00;;;;;;479393;247;1356;-46
2021/11/11 08:13:24;;;;;;;;;;;20.80;39.00;;;;;;481146;247;1383;-46
2021/11/11 08:15:25;;;;;;;;;;;20.80;39.00;;;;;;479349;248;1319;-47
2021/11/11 08:17:26;;;;;;;;;;;20.80;38.80;;;;;;481169;247;1179;-47
2021/11/11 08:19:28;;;;;;;;;;;20.80;38.90;;;;;;481271;247;1193;-46
2021/11/11 08:21:29;;;;;;;;;;;20.80;38.80;;;;;;479893;242;1241;-46
2021/11/11 08:23:30;;;;;;;;;;;20.80;38.80;;;;;;481253;247;2178;-46
2021/11/11 08:25:32;;;;;;;;;;;20.80;38.90;;;;;;479369;248;1067;-46
2021/11/11 08:27:33;;;;;;;;;;;20.80;38.90;;;;;;480921;247;1268;-46
2021/11/11 08:29:34;;;;;;;;;;;20.90;39.00;;;;;;479200;248;1151;-46
2021/11/11 08:31:36;;;;;;;;;;;20.80;38.90;;;;;;481022;247;1097;-46
2021/11/11 08:33:37;;;;;;;;;;;20.80;39.00;;;;;;479219;248;1228;-46
2021/11/11 08:35:38;;;;;;;;;;;20.80;39.00;;;;;;481145;247;1069;-47
2021/11/11 08:37:40;;;;;;;;;;;20.80;39.10;;;;;;479387;248;1105;-46
2021/11/11 08:39:41;;;;;;;;;;;20.80;39.10;;;;;;481105;247;1077;-46
2021/11/11 08:41:42;;;;;;;;;;;20.80;39.10;;;;;;479324;248;1362;-46
2021/11/11 08:43:44;;;;;;;;;;;20.80;39.10;;;;;;481237;247;2185;-46
2021/11/11 08:45:45;;;;;;;;;;;20.80;39.20;;;;;;479326;248;1049;-46
2021/11/11 08:47:46;;;;;;;;;;;20.80;39.20;;;;;;480992;247;1201;-46
2021/11/11 08:49:50;;;;;;;;;;;20.80;39.20;;;;;;479300;248;1184;-46
2021/11/11 08:51:49;;;;;;;;;;;20.80;39.30;;;;;;480826;247;2006;-46
2021/11/11 08:53:51;;;;;;;;;;;20.80;39.30;;;;;;479207;248;1106;-46
2021/11/11 08:55:52;;;;;;;;;;;20.80;39.30;;;;;;481240;247;1106;-46
2021/11/11 08:57:53;;;;;;;;;;;20.80;39.30;;;;;;479396;248;1191;-47
2021/11/11 08:59:55;;;;;;;;;;;20.80;39.40;;;;;;481172;247;1039;-46
2021/11/11 09:01:56;;;;;;;;;;;20.80;39.40;;;;;;479372;248;1122;-46
2021/11/11 09:03:57;;;;;;;;;;;20.80;39.50;;;;;;481247;247;2188;-46
2021/11/11 09:05:59;;;;;;;;;;;20.70;39.40;;;;;;481297;247;1062;-47
2021/11/11 09:08:00;;;;;;;;;;;20.70;39.50;;;;;;479391;248;1091;-47
2021/11/11 09:10:01;;;;;;;;;;;20.80;39.50;;;;;;481309;247;1404;-46
2021/11/11 09:12:03;;;;;;;;;;;20.80;39.50;;;;;;479396;248;1281;-46
2021/11/11 09:14:04;;;;;;;;;;;20.70;39.50;;;;;;481232;247;1119;-46
2021/11/11 09:16:05;;;;;;;;;;;20.70;39.50;;;;;;479201;248;1363;-46
2021/11/11 09:18:07;;;;;;;;;;;20.80;39.60;;;;;;480885;247;1235;-46
2021/11/11 09:20:09;;;;;;;;;;;20.70;39.60;;;;;;479321;248;1049;-46
2021/11/11 09:22:10;;;;;;;;;;;20.70;39.70;;;;;;481120;247;1177;-46
2021/11/11 09:24:11;;;;;;;;;;;20.70;39.70;;;;;;479340;248;2202;-46
2021/11/11 09:26:13;;;;;;;;;;;20.70;39.60;;;;;;481090;247;1575;-46
2021/11/11 09:28:14;;;;;;;;;;;20.70;39.60;;;;;;479604;248;1321;-46
2021/11/11 09:30:15;;;;;;;;;;;20.70;39.60;;;;;;481086;247;1143;-46
2021/11/11 09:32:17;;;;;;;;;;;20.70;39.60;;;;;;481115;247;1360;-46
2021/11/11 09:34:18;;;;;;;;;;;20.70;39.60;;;;;;481170;247;1145;-46
2021/11/11 09:36:19;;;;;;;;;;;20.70;39.60;;;;;;479273;248;1438;-46
2021/11/11 09:38:21;;;;;;;;;;;20.70;39.70;;;;;;481831;247;1068;-46
2021/11/11 09:40:22;;;;;;;;;;;20.70;39.60;;;;;;479343;248;1091;-46
2021/11/11 09:42:23;;;;;;;;;;;20.70;39.60;;;;;;480904;247;1584;-46
2021/11/11 09:44:25;;;;;;;;;;;20.70;39.60;;;;;;479387;248;2187;-47
2021/11/11 09:46:26;;;;;;;;;;;20.70;39.70;;;;;;480937;247;1435;-46
2021/11/11 09:48:27;;;;;;;;;;;20.70;39.60;;;;;;479679;248;1216;-46
2021/11/11 09:50:29;;;;;;;;;;;20.80;39.70;;;;;;481426;247;869;-46
2021/11/11 09:52:30;;;;;;;;;;;20.70;39.70;;;;;;480902;247;1133;-46
2021/11/11 09:59:10;;;;;;;;;;;20.70;39.60;;;;;;479342;248;1269;-46
2021/11/11 10:01:11;;;;;;;;;;;20.70;39.60;;;;;;481284;247;1066;-46
2021/11/11 10:03:13;;;;;;;;;;;20.70;39.60;;;;;;480838;247;1428;-46
2021/11/11 10:05:14;;;;;;;;;;;20.70;39.60;;;;;;479067;248;2197;-46
2021/11/11 10:07:15;;;;;;;;;;;20.70;39.60;;;;;;481013;247;1262;-46
2021/11/11 10:09:17;;;;;;;;;;;20.70;39.60;;;;;;481048;247;1059;-46
2021/11/11 10:11:18;;;;;;;;;;;20.70;39.60;;;;;;479338;248;1131;-46
2021/11/11 10:13:20;;;;;;;;;;;20.70;39.60;;;;;;481194;247;1197;-46
2021/11/11 10:15:21;;;;;;;;;;;20.70;39.60;;;;;;479194;248;1180;-46
2021/11/11 10:17:22;;;;;;;;;;;20.80;39.60;;;;;;481117;247;1212;-47
2021/11/11 10:19:23;;;;;;;;;;;20.70;39.60;;;;;;479280;248;1076;-46
2021/11/11 10:21:27;;;;;;;;;;;20.70;39.60;;;;;;481109;247;1745;-46
2021/11/11 10:23:26;;;;;;;;;;;20.70;39.60;;;;;;481032;247;1361;-46
2021/11/11 10:25:28;;;;;;;;;;;20.70;39.60;;;;;;479439;248;2134;-46
2021/11/11 10:27:30;;;;;;;;;;;20.60;39.60;;;;;;480786;247;2641;-46
2021/11/11 10:29:33;;;;;;;;;;;20.70;39.70;;;;;;480982;247;2197;-46
2021/11/11 10:31:34;;;;;;;;;;;20.70;39.70;;;;;;479254;248;1085;-46
2021/11/11 10:33:35;;;;;;;;;;;20.70;39.70;;;;;;481095;247;1082;-47
2021/11/11 10:35:38;;;;;;;;;;;20.70;39.60;;;;;;479274;248;1162;-46
2021/11/11 10:37:38;;;;;;;;;;;20.70;39.60;;;;;;481713;247;1439;-46
2021/11/11 10:39:41;;;;;;;;;;;20.70;39.60;;;;;;480197;248;923;-46
2021/11/11 10:41:41;;;;;;;;;;;20.70;39.60;;;;;;481193;247;1292;-46
2021/11/11 10:43:43;;;;;;;;;;;20.70;39.60;;;;;;481096;247;1213;-46
2021/11/11 10:45:44;;;;;;;;;;;20.70;39.60;;;;;;479214;248;2191;-47
2021/11/11 10:47:46;;;;;;;;;;;20.70;39.60;;;;;;480953;247;1184;-46
2021/11/11 10:49:47;;;;;;;;;;;20.70;39.60;;;;;;481106;247;1124;-46
2021/11/11 10:51:48;;;;;;;;;;;20.70;39.50;;;;;;479387;248;1394;-46
2021/11/11 10:53:50;;;;;;;;;;;20.70;39.50;;;;;;481220;247;1086;-46
2021/11/11 10:55:51;;;;;;;;;;;20.70;39.50;;;;;;479410;248;1152;-46
2021/11/11 10:57:52;;;;;;;;;;;20.70;39.50;;;;;;481011;247;1163;-46
2021/11/11 10:59:54;;;;;;;;;;;20.70;39.50;;;;;;481173;247;1211;-46
2021/11/11 11:01:55;;;;;;;;;;;20.60;39.40;;;;;;479365;248;1164;-46
2021/11/11 11:03:58;;;;;;;;;;;20.60;39.40;;;;;;481182;247;1174;-46
2021/11/11 11:05:58;;;;;;;;;;;20.70;39.40;;;;;;479526;248;2198;-47
2021/11/11 11:08:00;;;;;;;;;;;20.60;39.40;;;;;;481214;247;1083;-46
2021/11/11 11:10:01;;;;;;;;;;;20.70;39.50;;;;;;479443;248;1133;-47
2021/11/11 11:12:02;;;;;;;;;;;20.60;39.40;;;;;;481084;247;1884;-47
2021/11/11 11:14:04;;;;;;;;;;;20.70;39.40;;;;;;481176;247;1182;-46
2021/11/11 11:16:05;;;;;;;;;;;20.70;39.40;;;;;;481039;247;1231;-47
2021/11/11 11:18:06;;;;;;;;;;;20.70;39.30;;;;;;479123;248;1167;-46
2021/11/11 11:20:07;;;;;;;;;;;20.70;39.30;;;;;;480968;247;1062;-46
2021/11/11 11:22:09;;;;;;;;;;;20.70;39.30;;;;;;479138;248;1228;-46
2021/11/11 11:24:10;;;;;;;;;;;20.70;39.20;;;;;;480979;247;1135;-46
2021/11/11 11:26:11;;;;;;;;;;;20.70;39.20;;;;;;481167;247;2204;-46
2021/11/11 11:28:13;;;;;;;;;;;20.70;39.30;;;;;;479492;248;1044;-46
2021/11/11 11:30:17;;;;;;;;;;;20.70;39.30;;;;;;481216;247;1214;-46
2021/11/11 11:32:19;;;;;;;;;;;20.70;39.30;;;;;;479298;248;2500;-46
2021/11/11 11:34:19;;;;;;;;;;;20.70;39.30;;;;;;480949;247;2263;-47
2021/11/11 11:36:20;;;;;;;;;;;20.60;39.20;;;;;;481168;247;1303;-46
2021/11/11 11:38:21;;;;;;;;;;;20.70;39.30;;;;;;479342;248;1376;-46
2021/11/11 11:40:23;;;;;;;;;;;20.70;39.20;;;;;;481078;247;1088;-46
2021/11/11 11:42:24;;;;;;;;;;;20.70;39.20;;;;;;481157;247;1222;-46
2021/11/11 11:44:26;;;;;;;;;;;20.70;39.30;;;;;;481004;247;1166;-46
2021/11/11 11:46:27;;;;;;;;;;;20.70;39.30;;;;;;480991;247;2113;-46
2021/11/11 11:48:29;;;;;;;;;;;20.70;39.20;;;;;;480023;248;1019;-46
2021/11/11 11:50:32;;;;;;;;;;;20.70;39.20;;;;;;481464;247;2319;-46
2021/11/11 11:52:31;;;;;;;;;;;20.70;39.20;;;;;;480096;248;1387;-47
2021/11/11 11:54:36;;;;;;;;;;;20.60;39.20;;;;;;481531;247;1767;-46
2021/11/11 11:56:42;;;;;;;;;;;20.60;39.20;;;;;;481567;247;2188;-46
2021/11/11 11:58:42;;;;;;;;;;;20.60;39.20;;;;;;479519;248;2088;-46
2021/11/11 12:00:57;;;;;;;;;;;20.60;39.20;;;;;;480906;247;2135;-46
2021/11/11 12:03:17;;;;;;;;;;;20.60;39.10;;;;;;481861;247;2102;-46
2021/11/11 12:07:50;;;;;;;;;;;20.70;39.10;;;;;;477238;247;2682;-46
2021/11/11 12:09:45;;;;;;;;;;;20.70;39.20;;;;;;479414;248;2034;-46
2021/11/11 12:12:09;;;;;;;;;;;20.70;39.30;;;;;;480972;247;2003;-46
2021/11/11 12:14:16;;;;;;;;;;;20.60;39.40;;;;;;479422;248;2227;-47
2021/11/11 12:28:41;;;;;;;;;;;20.70;39.20;;;;;;479450;248;1143;-46
2021/11/11 12:39:55;;;;;;;;;;;20.70;39.20;;;;;;481125;247;1495;-47